Alaska — SYDS — position and weather

sailwx.info

Track history (hours):
 
Tides and Currents Weather Stations Pressure Air Temp Water Temp Dewpoint Dewpoint Depression Visibility Wind Speed Wind Dir Waves Ship Positions

Alaska

Last reported at 2018-Feb-08 02:30 UTC. Time now 2018-Feb-18 18:38 UTC.
Position N 36°27' E 014°29'.
Warning: this ship's position is 10 days out of date.

Length 274 m; draft 16.7 m.

Type: Tanker. MMSI: 240472000.

Date/timePositionNaut miles runAvg speedWind from/ knotsBaromVisibWave heightAir tempDewpointWater temp
2018-Feb-08 02:30N 36°27' E 014°29'1211.9
2018-Feb-08 01:30N 36°30' E 014°15'611.7
2018-Feb-08 01:00N 36°32' E 014°08'612.0
2018-Feb-08 00:30N 36°33' E 014°01'612.1
2018-Feb-08 00:00N 36°35' E 013°53'611.9
2018-Feb-07 23:29N 36°36' E 013°46'50212.1
2018-Feb-06 06:05N 37°08' E 003°19'112.0
2018-Feb-06 06:00N 37°08' E 003°18'611.9
2018-Feb-06 05:30N 37°07' E 003°11'612.0
2018-Feb-06 04:59N 37°06' E 003°03'40212.5
2018-Feb-04 20:55N 36°00' W 005°11'4 4.6
2018-Feb-04 20:00N 36°00' W 005°16'3 5.5
2018-Feb-04 19:31N 35°60' W 005°19'4 8.6
2018-Feb-04 19:00N 35°59' W 005°24'26110.7
2018-Feb-03 18:27N 38°15' W 010°04'712.7
2018-Feb-03 17:56N 38°22' W 010°06'712.8
2018-Feb-03 17:24N 38°28' W 010°08'1912.5
2018-Feb-03 15:51N 38°47' W 010°12'512.1
2018-Feb-03 15:24N 38°53' W 010°12'511.9
2018-Feb-03 15:00N 38°58' W 010°12'611.9
2018-Feb-03 14:30N 39°04' W 010°12'612.3
2018-Feb-03 14:00N 39°10' W 010°12'612.4
2018-Feb-03 13:30N 39°16' W 010°12'  
2018-Jan-31 17:53N 49°43' W 003°37'3 8.6
2018-Jan-31 17:30N 49°45' W 003°33'4 8.6
2018-Jan-31 16:59N 49°47' W 003°27'4 8.8
2018-Jan-31 16:30N 49°49' W 003°21'5 9.6
2018-Jan-31 16:00N 49°52' W 003°15'510.5
2018-Jan-31 15:30N 49°54' W 003°08'611.6
2018-Jan-31 15:00N 49°57' W 003°00'611.9
2018-Jan-31 14:30N 49°59' W 002°51'3113.6
2018-Jan-31 12:12N 50°08' W 002°05'312.9
2018-Jan-31 12:00N 50°09' W 002°01'612.2
2018-Jan-31 11:30N 50°11' W 001°52'611.2
2018-Jan-31 11:00N 50°12' W 001°43'510.4
2018-Jan-31 10:30N 50°13' W 001°35'5 9.6
2018-Jan-31 10:00N 50°14' W 001°28'4 8.4
2018-Jan-31 09:30N 50°15' W 001°22'4 7.5
2018-Jan-31 08:59N 50°15' W 001°16'3 7.2
2018-Jan-31 08:30N 50°18' W 001°11'13 6.6
2018-Jan-31 06:32N 50°21' W 000°52'1 7.7
2018-Jan-31 06:20N 50°22' W 000°50'3 8.1
2018-Jan-31 06:00N 50°22' W 000°45'5 5.1
2018-Jan-31 05:01N 50°23' W 000°38'0 6.4
2018-Jan-31 04:59N 50°24' W 000°38'610.4
2018-Jan-31 04:25N 50°25' W 000°29'511.1
2018-Jan-31 04:00N 50°27' W 000°22'611.3
2018-Jan-31 03:30N 50°28' W 000°13'611.3
2018-Jan-31 03:01N 50°29' W 000°05'611.3
2018-Jan-31 02:31N 50°31' E 000°04'611.3
2018-Jan-31 01:59N 50°33' E 000°13'511.2
2018-Jan-31 01:31N 50°34' E 000°21'611.1
2018-Jan-31 01:01N 50°36' E 000°29'1010.4
2018-Jan-31 00:01N 50°40' E 000°44'510.0
2018-Jan-30 23:31N 50°43' E 000°51'5 9.5
2018-Jan-30 23:01N 50°46' E 000°57'5 9.3
2018-Jan-30 22:30N 50°48' E 001°03'10 9.6
2018-Jan-30 21:30N 50°54' E 001°16'510.2
2018-Jan-30 21:00N 50°57' E 001°21'611.8
2018-Jan-30 20:30N 51°02' E 001°28'713.5
2018-Jan-30 20:00N 51°06' E 001°35'714.3
2018-Jan-30 19:30N 51°12' E 001°43'714.4
2018-Jan-30 19:01N 51°18' E 001°49'714.1
2018-Jan-30 18:30N 51°24' E 001°54'713.5
2018-Jan-30 18:00N 51°29' E 002°01'612.9
2018-Jan-30 17:30N 51°34' E 002°08'612.4
2018-Jan-30 17:00N 51°39' E 002°14'612.0
2018-Jan-30 16:30N 51°43' E 002°21'811.4
2018-Jan-30 15:50N 51°49' E 002°29'411.1
2018-Jan-30 15:28N 51°52' E 002°34'511.4
2018-Jan-30 15:00N 51°55' E 002°40'1610.9
2018-Jan-30 13:30N 51°59' E 003°06'7 9.6
2018-Jan-30 12:49N 51°59' E 003°16'3 8.2
2018-Jan-30 12:27N 51°59' E 003°21'4 8.2
2018-Jan-30 12:00N 51°60' E 003°27'5 8.8
2018-Jan-30 11:28N 52°00' E 003°35'9 9.4
2018-Jan-30 10:30N 52°01' E 003°49'7 7.4
2018-Jan-30 09:30N 51°60' E 004°01'4 8.6
2018-Jan-30 09:00N 51°58' E 004°07'3 5.6
2018-Jan-30 08:30N 51°56' E 004°11'1 2.3
2018-Jan-30 08:01N 51°56' E 004°12'0 0.0
2018-Jan-30 07:28N 51°56' E 004°12'0 0.0
2018-Jan-30 06:58N 51°56' E 004°12'0 0.0
2018-Jan-30 06:25N 51°56' E 004°12'0 0.0
2018-Jan-30 05:58N 51°56' E 004°12'0 0.0
2018-Jan-30 05:28N 51°56' E 004°12'0 0.0
2018-Jan-30 04:58N 51°56' E 004°12'0 0.0
2018-Jan-30 04:28N 51°56' E 004°12'0 0.0
2018-Jan-30 03:55N 51°56' E 004°12'0 0.0
2018-Jan-30 03:28N 51°56' E 004°12'0 0.0
2018-Jan-30 02:58N 51°56' E 004°12'0 0.0
2018-Jan-30 02:22N 51°56' E 004°12'0 0.0
2018-Jan-30 01:58N 51°56' E 004°12'0 0.0
2018-Jan-30 01:28N 51°56' E 004°12'0 0.0
2018-Jan-30 00:49N 51°56' E 004°12'0 0.0
2018-Jan-30 00:25N 51°56' E 004°12'0 0.0
2018-Jan-29 23:55N 51°56' E 004°12'0 0.0
2018-Jan-29 23:28N 51°56' E 004°12'0 0.0
2018-Jan-29 22:49N 51°56' E 004°12'0 0.0
2018-Jan-29 22:22N 51°56' E 004°12'0 0.0
2018-Jan-29 21:55N 51°56' E 004°12'0 0.0
2018-Jan-29 21:28N 51°56' E 004°12'0 0.0
2018-Jan-29 20:58N 51°56' E 004°12'0 0.0
2018-Jan-29 20:25N 51°56' E 004°12'0 0.0
2018-Jan-29 19:52N 51°56' E 004°12'0 0.0
2018-Jan-29 19:22N 51°56' E 004°12'0 0.0
2018-Jan-29 18:58N 51°56' E 004°12'0 0.0
2018-Jan-29 18:25N 51°56' E 004°12'0 0.0
2018-Jan-29 17:40N 51°56' E 004°12'0 0.0
2018-Jan-29 17:28N 51°56' E 004°12'0 0.0
2018-Jan-29 16:58N 51°56' E 004°12'0 0.0
2018-Jan-29 16:07N 51°56' E 004°12'0 0.0
2018-Jan-29 15:55N 51°56' E 004°12'0 0.0
2018-Jan-29 15:22N 51°56' E 004°12'0 0.0
2018-Jan-29 14:58N 51°56' E 004°12'0 0.0
2018-Jan-29 14:28N 51°56' E 004°12'0 0.0
2018-Jan-29 13:58N 51°56' E 004°12'0 0.0
2018-Jan-29 13:28N 51°56' E 004°12'0 0.0
2018-Jan-29 12:46N 51°56' E 004°12'0 0.0
2018-Jan-29 12:28N 51°56' E 004°12'0 0.0
2018-Jan-29 11:58N 51°56' E 004°12'0 0.0
2018-Jan-29 11:28N 51°56' E 004°12'0 0.0
2018-Jan-29 10:58N 51°56' E 004°12'0 0.0
2018-Jan-29 10:25N 51°56' E 004°12'0 0.0
2018-Jan-29 09:58N 51°56' E 004°12'0 0.0
2018-Jan-29 09:28N 51°56' E 004°12'0 0.0
2018-Jan-29 08:58N 51°56' E 004°12'0 0.0
2018-Jan-29 08:25N 51°56' E 004°12'0 0.0
2018-Jan-29 07:52N 51°56' E 004°12'0 0.0
2018-Jan-29 07:22N 51°56' E 004°12'0 0.0
2018-Jan-29 06:58N 51°56' E 004°12'0 0.0
2018-Jan-29 06:22N 51°56' E 004°12'0 0.0
2018-Jan-29 05:31N 51°56' E 004°12'0 0.0
2018-Jan-29 05:28N 51°56' E 004°12'0 0.0
2018-Jan-29 04:55N 51°56' E 004°12'0 0.0
2018-Jan-29 03:52N 51°56' E 004°12'0 0.0
2018-Jan-29 03:28N 51°56' E 004°12'0 0.0
2018-Jan-29 02:58N 51°56' E 004°12'  
Track history (hours):
 
Tides and Currents Weather Stations Pressure Air Temp Water Temp Dewpoint Dewpoint Depression Visibility Wind Speed Wind Dir Waves Ship Positions

Alaska

Last reported at 2018-Feb-08 02:30 UTC. Time now 2018-Feb-18 18:38 UTC.
Position N 36°27' E 014°29'.
Warning: this ship's position is 10 days out of date.

Length 274 m; draft 16.7 m.

Type: Tanker. MMSI: 240472000.

Date/timePositionNaut miles runAvg speedWind from/ knotsBaromVisibWave heightAir tempDewpointWater temp
2018-Feb-08 02:30N 36°27' E 014°29'1211.9
2018-Feb-08 01:30N 36°30' E 014°15'611.7
2018-Feb-08 01:00N 36°32' E 014°08'612.0
2018-Feb-08 00:30N 36°33' E 014°01'612.1
2018-Feb-08 00:00N 36°35' E 013°53'611.9
2018-Feb-07 23:29N 36°36' E 013°46'50212.1
2018-Feb-06 06:05N 37°08' E 003°19'112.0
2018-Feb-06 06:00N 37°08' E 003°18'611.9
2018-Feb-06 05:30N 37°07' E 003°11'612.0
2018-Feb-06 04:59N 37°06' E 003°03'40212.5
2018-Feb-04 20:55N 36°00' W 005°11'4 4.6
2018-Feb-04 20:00N 36°00' W 005°16'3 5.5
2018-Feb-04 19:31N 35°60' W 005°19'4 8.6
2018-Feb-04 19:00N 35°59' W 005°24'26110.7
2018-Feb-03 18:27N 38°15' W 010°04'712.7
2018-Feb-03 17:56N 38°22' W 010°06'712.8
2018-Feb-03 17:24N 38°28' W 010°08'1912.5
2018-Feb-03 15:51N 38°47' W 010°12'512.1
2018-Feb-03 15:24N 38°53' W 010°12'511.9
2018-Feb-03 15:00N 38°58' W 010°12'611.9
2018-Feb-03 14:30N 39°04' W 010°12'612.3
2018-Feb-03 14:00N 39°10' W 010°12'612.4
2018-Feb-03 13:30N 39°16' W 010°12'  
2018-Jan-31 17:53N 49°43' W 003°37'3 8.6
2018-Jan-31 17:30N 49°45' W 003°33'4 8.6
2018-Jan-31 16:59N 49°47' W 003°27'4 8.8
2018-Jan-31 16:30N 49°49' W 003°21'5 9.6
2018-Jan-31 16:00N 49°52' W 003°15'510.5
2018-Jan-31 15:30N 49°54' W 003°08'611.6
2018-Jan-31 15:00N 49°57' W 003°00'611.9
2018-Jan-31 14:30N 49°59' W 002°51'3113.6
2018-Jan-31 12:12N 50°08' W 002°05'312.9
2018-Jan-31 12:00N 50°09' W 002°01'612.2
2018-Jan-31 11:30N 50°11' W 001°52'611.2
2018-Jan-31 11:00N 50°12' W 001°43'510.4
2018-Jan-31 10:30N 50°13' W 001°35'5 9.6
2018-Jan-31 10:00N 50°14' W 001°28'4 8.4
2018-Jan-31 09:30N 50°15' W 001°22'4 7.5
2018-Jan-31 08:59N 50°15' W 001°16'3 7.2
2018-Jan-31 08:30N 50°18' W 001°11'13 6.6
2018-Jan-31 06:32N 50°21' W 000°52'1 7.7
2018-Jan-31 06:20N 50°22' W 000°50'3 8.1
2018-Jan-31 06:00N 50°22' W 000°45'5 5.1
2018-Jan-31 05:01N 50°23' W 000°38'0 6.4
2018-Jan-31 04:59N 50°24' W 000°38'610.4
2018-Jan-31 04:25N 50°25' W 000°29'511.1
2018-Jan-31 04:00N 50°27' W 000°22'611.3
2018-Jan-31 03:30N 50°28' W 000°13'611.3
2018-Jan-31 03:01N 50°29' W 000°05'611.3
2018-Jan-31 02:31N 50°31' E 000°04'611.3
2018-Jan-31 01:59N 50°33' E 000°13'511.2
2018-Jan-31 01:31N 50°34' E 000°21'611.1
2018-Jan-31 01:01N 50°36' E 000°29'1010.4
2018-Jan-31 00:01N 50°40' E 000°44'510.0
2018-Jan-30 23:31N 50°43' E 000°51'5 9.5
2018-Jan-30 23:01N 50°46' E 000°57'5 9.3
2018-Jan-30 22:30N 50°48' E 001°03'10 9.6
2018-Jan-30 21:30N 50°54' E 001°16'510.2
2018-Jan-30 21:00N 50°57' E 001°21'611.8
2018-Jan-30 20:30N 51°02' E 001°28'713.5
2018-Jan-30 20:00N 51°06' E 001°35'714.3
2018-Jan-30 19:30N 51°12' E 001°43'714.4
2018-Jan-30 19:01N 51°18' E 001°49'714.1
2018-Jan-30 18:30N 51°24' E 001°54'713.5
2018-Jan-30 18:00N 51°29' E 002°01'612.9
2018-Jan-30 17:30N 51°34' E 002°08'612.4
2018-Jan-30 17:00N 51°39' E 002°14'612.0
2018-Jan-30 16:30N 51°43' E 002°21'811.4
2018-Jan-30 15:50N 51°49' E 002°29'411.1
2018-Jan-30 15:28N 51°52' E 002°34'511.4
2018-Jan-30 15:00N 51°55' E 002°40'1610.9
2018-Jan-30 13:30N 51°59' E 003°06'7 9.6
2018-Jan-30 12:49N 51°59' E 003°16'3 8.2
2018-Jan-30 12:27N 51°59' E 003°21'4 8.2
2018-Jan-30 12:00N 51°60' E 003°27'5 8.8
2018-Jan-30 11:28N 52°00' E 003°35'9 9.4
2018-Jan-30 10:30N 52°01' E 003°49'7 7.4
2018-Jan-30 09:30N 51°60' E 004°01'4 8.6
2018-Jan-30 09:00N 51°58' E 004°07'3 5.6
2018-Jan-30 08:30N 51°56' E 004°11'1 2.3
2018-Jan-30 08:01N 51°56' E 004°12'0 0.0
2018-Jan-30 07:28N 51°56' E 004°12'0 0.0
2018-Jan-30 06:58N 51°56' E 004°12'0 0.0
2018-Jan-30 06:25N 51°56' E 004°12'0 0.0
2018-Jan-30 05:58N 51°56' E 004°12'0 0.0
2018-Jan-30 05:28N 51°56' E 004°12'0 0.0
2018-Jan-30 04:58N 51°56' E 004°12'0 0.0
2018-Jan-30 04:28N 51°56' E 004°12'0 0.0
2018-Jan-30 03:55N 51°56' E 004°12'0 0.0
2018-Jan-30 03:28N 51°56' E 004°12'0 0.0
2018-Jan-30 02:58N 51°56' E 004°12'0 0.0
2018-Jan-30 02:22N 51°56' E 004°12'0 0.0
2018-Jan-30 01:58N 51°56' E 004°12'0 0.0
2018-Jan-30 01:28N 51°56' E 004°12'0 0.0
2018-Jan-30 00:49N 51°56' E 004°12'0 0.0
2018-Jan-30 00:25N 51°56' E 004°12'0 0.0
2018-Jan-29 23:55N 51°56' E 004°12'0 0.0
2018-Jan-29 23:28N 51°56' E 004°12'0 0.0
2018-Jan-29 22:49N 51°56' E 004°12'0 0.0
2018-Jan-29 22:22N 51°56' E 004°12'0 0.0
2018-Jan-29 21:55N 51°56' E 004°12'0 0.0
2018-Jan-29 21:28N 51°56' E 004°12'0 0.0
2018-Jan-29 20:58N 51°56' E 004°12'0 0.0
2018-Jan-29 20:25N 51°56' E 004°12'0 0.0
2018-Jan-29 19:52N 51°56' E 004°12'0 0.0
2018-Jan-29 19:22N 51°56' E 004°12'0 0.0
2018-Jan-29 18:58N 51°56' E 004°12'0 0.0
2018-Jan-29 18:25N 51°56' E 004°12'0 0.0
2018-Jan-29 17:40N 51°56' E 004°12'0 0.0
2018-Jan-29 17:28N 51°56' E 004°12'0 0.0
2018-Jan-29 16:58N 51°56' E 004°12'0 0.0
2018-Jan-29 16:07N 51°56' E 004°12'0 0.0
2018-Jan-29 15:55N 51°56' E 004°12'0 0.0
2018-Jan-29 15:22N 51°56' E 004°12'0 0.0
2018-Jan-29 14:58N 51°56' E 004°12'0 0.0
2018-Jan-29 14:28N 51°56' E 004°12'0 0.0
2018-Jan-29 13:58N 51°56' E 004°12'0 0.0
2018-Jan-29 13:28N 51°56' E 004°12'0 0.0
2018-Jan-29 12:46N 51°56' E 004°12'0 0.0
2018-Jan-29 12:28N 51°56' E 004°12'0 0.0
2018-Jan-29 11:58N 51°56' E 004°12'0 0.0
2018-Jan-29 11:28N 51°56' E 004°12'0 0.0
2018-Jan-29 10:58N 51°56' E 004°12'0 0.0
2018-Jan-29 10:25N 51°56' E 004°12'0 0.0
2018-Jan-29 09:58N 51°56' E 004°12'0 0.0
2018-Jan-29 09:28N 51°56' E 004°12'0 0.0
2018-Jan-29 08:58N 51°56' E 004°12'0 0.0
2018-Jan-29 08:25N 51°56' E 004°12'0 0.0
2018-Jan-29 07:52N 51°56' E 004°12'0 0.0
2018-Jan-29 07:22N 51°56' E 004°12'0 0.0
2018-Jan-29 06:58N 51°56' E 004°12'0 0.0
2018-Jan-29 06:22N 51°56' E 004°12'0 0.0
2018-Jan-29 05:31N 51°56' E 004°12'0 0.0
2018-Jan-29 05:28N 51°56' E 004°12'0 0.0
2018-Jan-29 04:55N 51°56' E 004°12'0 0.0
2018-Jan-29 03:52N 51°56' E 004°12'0 0.0
2018-Jan-29 03:28N 51°56' E 004°12'0 0.0
2018-Jan-29 02:58N 51°56' E 004°12'  

Dump ship's entire track history